sensor_id;sensor_type;location;lat;lon;timestamp;P1;durP1;ratioP1;P2;durP2;ratioP2
41923;SDS011;27613;48.116;11.656;2023-04-10T00:00:31;13.65;;;10.60;;
41923;SDS011;27613;48.116;11.656;2023-04-10T00:02:57;15.82;;;11.25;;
41923;SDS011;27613;48.116;11.656;2023-04-10T00:05:25;13.40;;;10.73;;
41923;SDS011;27613;48.116;11.656;2023-04-10T00:07:51;13.82;;;10.57;;
41923;SDS011;27613;48.116;11.656;2023-04-10T00:10:17;13.02;;;9.80;;
41923;SDS011;27613;48.116;11.656;2023-04-10T00:12:43;12.23;;;10.40;;
41923;SDS011;27613;48.116;11.656;2023-04-10T00:15:09;15.23;;;10.90;;
41923;SDS011;27613;48.116;11.656;2023-04-10T00:17:35;12.52;;;9.77;;
41923;SDS011;27613;48.116;11.656;2023-04-10T00:20:00;13.50;;;10.32;;
41923;SDS011;27613;48.116;11.656;2023-04-10T00:22:26;11.63;;;9.15;;
41923;SDS011;27613;48.116;11.656;2023-04-10T00:24:52;13.68;;;10.13;;
41923;SDS011;27613;48.116;11.656;2023-04-10T00:27:17;10.80;;;8.70;;
41923;SDS011;27613;48.116;11.656;2023-04-10T00:29:43;11.52;;;9.35;;
41923;SDS011;27613;48.116;11.656;2023-04-10T00:32:08;12.02;;;9.35;;
41923;SDS011;27613;48.116;11.656;2023-04-10T00:34:34;11.32;;;9.52;;
41923;SDS011;27613;48.116;11.656;2023-04-10T00:37:00;11.50;;;9.18;;
41923;SDS011;27613;48.116;11.656;2023-04-10T00:39:25;12.57;;;9.45;;
41923;SDS011;27613;48.116;11.656;2023-04-10T00:41:51;11.18;;;8.95;;
41923;SDS011;27613;48.116;11.656;2023-04-10T00:44:16;11.05;;;8.88;;
41923;SDS011;27613;48.116;11.656;2023-04-10T00:46:42;11.43;;;8.82;;
41923;SDS011;27613;48.116;11.656;2023-04-10T00:49:08;12.23;;;9.18;;
41923;SDS011;27613;48.116;11.656;2023-04-10T00:51:35;12.05;;;9.23;;
41923;SDS011;27613;48.116;11.656;2023-04-10T00:54:01;11.93;;;9.15;;
41923;SDS011;27613;48.116;11.656;2023-04-10T00:56:29;16.45;;;10.50;;
41923;SDS011;27613;48.116;11.656;2023-04-10T00:58:58;10.98;;;9.00;;
41923;SDS011;27613;48.116;11.656;2023-04-10T01:01:23;10.95;;;8.48;;
41923;SDS011;27613;48.116;11.656;2023-04-10T01:03:49;17.15;;;9.98;;
41923;SDS011;27613;48.116;11.656;2023-04-10T01:11:17;11.48;;;8.65;;
41923;SDS011;27613;48.116;11.656;2023-04-10T01:16:38;12.55;;;8.98;;
41923;SDS011;27613;48.116;11.656;2023-04-10T01:21:57;16.88;;;9.13;;
41923;SDS011;27613;48.116;11.656;2023-04-10T01:27:23;11.45;;;8.82;;
41923;SDS011;27613;48.116;11.656;2023-04-10T01:30:05;13.20;;;8.57;;
41923;SDS011;27613;48.116;11.656;2023-04-10T01:32:32;14.95;;;9.20;;
41923;SDS011;27613;48.116;11.656;2023-04-10T01:35:01;14.30;;;9.63;;
41923;SDS011;27613;48.116;11.656;2023-04-10T01:37:30;12.45;;;8.93;;
41923;SDS011;27613;48.116;11.656;2023-04-10T01:40:03;13.52;;;9.68;;
41923;SDS011;27613;48.116;11.656;2023-04-10T01:42:33;11.57;;;8.57;;
41923;SDS011;27613;48.116;11.656;2023-04-10T01:45:03;11.10;;;8.27;;
41923;SDS011;27613;48.116;11.656;2023-04-10T01:47:32;11.13;;;8.82;;
41923;SDS011;27613;48.116;11.656;2023-04-10T01:49:58;12.68;;;8.80;;
41923;SDS011;27613;48.116;11.656;2023-04-10T01:52:25;12.57;;;9.45;;
41923;SDS011;27613;48.116;11.656;2023-04-10T01:54:52;12.98;;;9.48;;
41923;SDS011;27613;48.116;11.656;2023-04-10T01:57:18;14.55;;;9.88;;
41923;SDS011;27613;48.116;11.656;2023-04-10T01:59:45;13.38;;;10.18;;
41923;SDS011;27613;48.116;11.656;2023-04-10T02:02:11;15.30;;;10.13;;
41923;SDS011;27613;48.116;11.656;2023-04-10T02:04:37;13.20;;;9.50;;
41923;SDS011;27613;48.116;11.656;2023-04-10T02:09:49;13.35;;;8.98;;
41923;SDS011;27613;48.116;11.656;2023-04-10T02:12:28;10.98;;;8.30;;
41923;SDS011;27613;48.116;11.656;2023-04-10T02:14:56;11.27;;;8.43;;
41923;SDS011;27613;48.116;11.656;2023-04-10T02:17:26;9.95;;;7.85;;
41923;SDS011;27613;48.116;11.656;2023-04-10T02:19:54;11.73;;;8.27;;
41923;SDS011;27613;48.116;11.656;2023-04-10T02:22:20;12.07;;;8.48;;
41923;SDS011;27613;48.116;11.656;2023-04-10T02:24:48;13.15;;;9.35;;
41923;SDS011;27613;48.116;11.656;2023-04-10T02:27:14;10.73;;;8.40;;
41923;SDS011;27613;48.116;11.656;2023-04-10T02:29:40;9.32;;;7.55;;
41923;SDS011;27613;48.116;11.656;2023-04-10T02:32:06;12.38;;;8.63;;
41923;SDS011;27613;48.116;11.656;2023-04-10T02:34:31;9.70;;;7.43;;
41923;SDS011;27613;48.116;11.656;2023-04-10T02:36:57;11.05;;;7.88;;
41923;SDS011;27613;48.116;11.656;2023-04-10T02:39:22;15.30;;;8.55;;
41923;SDS011;27613;48.116;11.656;2023-04-10T02:41:48;9.98;;;7.72;;
41923;SDS011;27613;48.116;11.656;2023-04-10T02:44:14;10.55;;;7.82;;
41923;SDS011;27613;48.116;11.656;2023-04-10T02:46:40;11.15;;;8.07;;
41923;SDS011;27613;48.116;11.656;2023-04-10T02:49:05;10.10;;;8.07;;
41923;SDS011;27613;48.116;11.656;2023-04-10T02:51:34;12.20;;;8.15;;
41923;SDS011;27613;48.116;11.656;2023-04-10T02:54:00;11.43;;;8.65;;
41923;SDS011;27613;48.116;11.656;2023-04-10T02:56:26;10.68;;;8.05;;
41923;SDS011;27613;48.116;11.656;2023-04-10T02:58:52;10.75;;;8.13;;
41923;SDS011;27613;48.116;11.656;2023-04-10T03:01:18;11.20;;;7.93;;
41923;SDS011;27613;48.116;11.656;2023-04-10T03:03:43;10.35;;;7.35;;
41923;SDS011;27613;48.116;11.656;2023-04-10T03:06:09;10.25;;;7.28;;
41923;SDS011;27613;48.116;11.656;2023-04-10T03:08:35;11.07;;;7.05;;
41923;SDS011;27613;48.116;11.656;2023-04-10T03:11:00;10.88;;;7.95;;
41923;SDS011;27613;48.116;11.656;2023-04-10T03:13:26;10.68;;;7.97;;
41923;SDS011;27613;48.116;11.656;2023-04-10T03:15:51;10.50;;;7.13;;
41923;SDS011;27613;48.116;11.656;2023-04-10T03:18:17;14.02;;;8.98;;
41923;SDS011;27613;48.116;11.656;2023-04-10T03:20:43;9.82;;;7.57;;
41923;SDS011;27613;48.116;11.656;2023-04-10T03:23:08;14.90;;;8.00;;
41923;SDS011;27613;48.116;11.656;2023-04-10T03:25:34;9.77;;;7.63;;
41923;SDS011;27613;48.116;11.656;2023-04-10T03:28:00;13.32;;;8.18;;
41923;SDS011;27613;48.116;11.656;2023-04-10T03:30:26;9.32;;;6.95;;
41923;SDS011;27613;48.116;11.656;2023-04-10T03:32:51;10.25;;;7.82;;
41923;SDS011;27613;48.116;11.656;2023-04-10T03:35:17;10.07;;;7.60;;
41923;SDS011;27613;48.116;11.656;2023-04-10T03:37:42;9.82;;;7.25;;
41923;SDS011;27613;48.116;11.656;2023-04-10T03:40:08;8.93;;;6.93;;
41923;SDS011;27613;48.116;11.656;2023-04-10T03:42:35;10.55;;;7.75;;
41923;SDS011;27613;48.116;11.656;2023-04-10T03:45:00;10.55;;;8.02;;
41923;SDS011;27613;48.116;11.656;2023-04-10T03:47:28;9.20;;;7.40;;
41923;SDS011;27613;48.116;11.656;2023-04-10T03:49:55;9.93;;;7.50;;
41923;SDS011;27613;48.116;11.656;2023-04-10T03:52:21;14.15;;;7.85;;
41923;SDS011;27613;48.116;11.656;2023-04-10T03:54:46;9.40;;;7.00;;
41923;SDS011;27613;48.116;11.656;2023-04-10T03:57:12;16.48;;;8.38;;
41923;SDS011;27613;48.116;11.656;2023-04-10T03:59:37;11.25;;;8.40;;
41923;SDS011;27613;48.116;11.656;2023-04-10T04:02:03;10.55;;;7.55;;
41923;SDS011;27613;48.116;11.656;2023-04-10T04:04:30;12.95;;;8.77;;
41923;SDS011;27613;48.116;11.656;2023-04-10T04:06:55;11.52;;;8.07;;
41923;SDS011;27613;48.116;11.656;2023-04-10T04:09:21;10.63;;;7.78;;
41923;SDS011;27613;48.116;11.656;2023-04-10T04:11:46;11.50;;;7.95;;
41923;SDS011;27613;48.116;11.656;2023-04-10T04:14:12;10.32;;;7.25;;
41923;SDS011;27613;48.116;11.656;2023-04-10T04:16:37;12.48;;;8.40;;
41923;SDS011;27613;48.116;11.656;2023-04-10T04:19:03;11.38;;;8.52;;
41923;SDS011;27613;48.116;11.656;2023-04-10T04:21:28;11.60;;;8.57;;
41923;SDS011;27613;48.116;11.656;2023-04-10T04:23:55;11.73;;;8.95;;
41923;SDS011;27613;48.116;11.656;2023-04-10T04:26:21;12.88;;;9.57;;
41923;SDS011;27613;48.116;11.656;2023-04-10T04:28:48;14.23;;;9.18;;
41923;SDS011;27613;48.116;11.656;2023-04-10T04:31:14;12.60;;;8.75;;
41923;SDS011;27613;48.116;11.656;2023-04-10T04:33:40;13.23;;;8.85;;
41923;SDS011;27613;48.116;11.656;2023-04-10T04:36:06;13.40;;;9.70;;
41923;SDS011;27613;48.116;11.656;2023-04-10T04:38:31;11.68;;;9.02;;
41923;SDS011;27613;48.116;11.656;2023-04-10T04:40:57;13.20;;;9.63;;
41923;SDS011;27613;48.116;11.656;2023-04-10T04:43:22;11.48;;;9.07;;
41923;SDS011;27613;48.116;11.656;2023-04-10T04:45:48;12.35;;;8.65;;
41923;SDS011;27613;48.116;11.656;2023-04-10T04:48:14;13.80;;;8.93;;
41923;SDS011;27613;48.116;11.656;2023-04-10T04:50:39;12.20;;;8.70;;
41923;SDS011;27613;48.116;11.656;2023-04-10T04:53:06;12.65;;;8.98;;
41923;SDS011;27613;48.116;11.656;2023-04-10T04:55:32;13.98;;;9.63;;
41923;SDS011;27613;48.116;11.656;2023-04-10T04:57:58;11.43;;;8.27;;
41923;SDS011;27613;48.116;11.656;2023-04-10T05:00:23;13.27;;;9.82;;
41923;SDS011;27613;48.116;11.656;2023-04-10T05:02:49;14.27;;;9.52;;
41923;SDS011;27613;48.116;11.656;2023-04-10T05:05:15;14.90;;;9.82;;
41923;SDS011;27613;48.116;11.656;2023-04-10T05:07:40;12.98;;;9.07;;
41923;SDS011;27613;48.116;11.656;2023-04-10T05:10:06;11.65;;;8.93;;
41923;SDS011;27613;48.116;11.656;2023-04-10T05:12:32;13.05;;;9.30;;
41923;SDS011;27613;48.116;11.656;2023-04-10T05:14:58;13.65;;;9.70;;
41923;SDS011;27613;48.116;11.656;2023-04-10T05:17:24;14.23;;;9.38;;
41923;SDS011;27613;48.116;11.656;2023-04-10T05:19:49;11.38;;;8.52;;
41923;SDS011;27613;48.116;11.656;2023-04-10T05:22:15;11.52;;;8.73;;
41923;SDS011;27613;48.116;11.656;2023-04-10T05:24:41;14.93;;;10.38;;
41923;SDS011;27613;48.116;11.656;2023-04-10T05:27:06;12.07;;;8.88;;
41923;SDS011;27613;48.116;11.656;2023-04-10T05:29:32;16.73;;;10.63;;
41923;SDS011;27613;48.116;11.656;2023-04-10T05:31:58;13.80;;;9.88;;
41923;SDS011;27613;48.116;11.656;2023-04-10T05:34:23;22.25;;;9.27;;
41923;SDS011;27613;48.116;11.656;2023-04-10T05:36:49;12.57;;;9.90;;
41923;SDS011;27613;48.116;11.656;2023-04-10T05:39:15;13.27;;;9.40;;
41923;SDS011;27613;48.116;11.656;2023-04-10T05:41:41;19.42;;;10.25;;
41923;SDS011;27613;48.116;11.656;2023-04-10T05:44:06;13.45;;;9.48;;
41923;SDS011;27613;48.116;11.656;2023-04-10T05:46:32;10.40;;;8.77;;
41923;SDS011;27613;48.116;11.656;2023-04-10T05:48:58;25.00;;;10.70;;
41923;SDS011;27613;48.116;11.656;2023-04-10T05:51:24;11.73;;;9.27;;
41923;SDS011;27613;48.116;11.656;2023-04-10T05:53:50;14.18;;;9.35;;
41923;SDS011;27613;48.116;11.656;2023-04-10T05:56:15;11.88;;;9.32;;
41923;SDS011;27613;48.116;11.656;2023-04-10T05:58:41;12.60;;;9.23;;
41923;SDS011;27613;48.116;11.656;2023-04-10T06:01:06;10.82;;;8.43;;
41923;SDS011;27613;48.116;11.656;2023-04-10T06:03:32;10.57;;;8.57;;
41923;SDS011;27613;48.116;11.656;2023-04-10T06:05:58;10.82;;;8.40;;
41923;SDS011;27613;48.116;11.656;2023-04-10T06:08:26;11.00;;;8.38;;
41923;SDS011;27613;48.116;11.656;2023-04-10T06:10:52;9.85;;;7.88;;
41923;SDS011;27613;48.116;11.656;2023-04-10T06:13:17;12.77;;;8.63;;
41923;SDS011;27613;48.116;11.656;2023-04-10T06:15:43;11.02;;;8.23;;
41923;SDS011;27613;48.116;11.656;2023-04-10T06:18:08;10.85;;;8.70;;
41923;SDS011;27613;48.116;11.656;2023-04-10T06:20:34;12.23;;;9.07;;
41923;SDS011;27613;48.116;11.656;2023-04-10T06:22:59;10.63;;;8.43;;
41923;SDS011;27613;48.116;11.656;2023-04-10T06:25:25;18.35;;;11.02;;
41923;SDS011;27613;48.116;11.656;2023-04-10T06:27:50;11.43;;;8.30;;
41923;SDS011;27613;48.116;11.656;2023-04-10T06:30:16;11.05;;;8.60;;
41923;SDS011;27613;48.116;11.656;2023-04-10T06:32:42;10.63;;;8.55;;
41923;SDS011;27613;48.116;11.656;2023-04-10T06:35:07;11.85;;;9.20;;
41923;SDS011;27613;48.116;11.656;2023-04-10T06:37:33;11.75;;;9.50;;
41923;SDS011;27613;48.116;11.656;2023-04-10T06:40:00;11.60;;;8.45;;
41923;SDS011;27613;48.116;11.656;2023-04-10T06:42:28;11.57;;;9.13;;
41923;SDS011;27613;48.116;11.656;2023-04-10T06:44:53;11.50;;;8.73;;
41923;SDS011;27613;48.116;11.656;2023-04-10T06:47:19;12.55;;;9.35;;
41923;SDS011;27613;48.116;11.656;2023-04-10T06:49:45;10.52;;;8.45;;
41923;SDS011;27613;48.116;11.656;2023-04-10T06:52:10;10.85;;;8.73;;
41923;SDS011;27613;48.116;11.656;2023-04-10T06:54:36;10.18;;;8.07;;
41923;SDS011;27613;48.116;11.656;2023-04-10T06:57:01;9.50;;;8.02;;
41923;SDS011;27613;48.116;11.656;2023-04-10T06:59:27;9.77;;;7.97;;
41923;SDS011;27613;48.116;11.656;2023-04-10T07:01:53;8.52;;;7.15;;
41923;SDS011;27613;48.116;11.656;2023-04-10T07:04:18;11.55;;;7.60;;
41923;SDS011;27613;48.116;11.656;2023-04-10T07:06:44;9.07;;;7.60;;
41923;SDS011;27613;48.116;11.656;2023-04-10T07:09:10;8.15;;;6.43;;
41923;SDS011;27613;48.116;11.656;2023-04-10T07:11:35;12.27;;;7.53;;
41923;SDS011;27613;48.116;11.656;2023-04-10T07:14:01;8.88;;;6.50;;
41923;SDS011;27613;48.116;11.656;2023-04-10T07:16:26;9.32;;;6.90;;
41923;SDS011;27613;48.116;11.656;2023-04-10T07:18:53;9.43;;;7.32;;
41923;SDS011;27613;48.116;11.656;2023-04-10T07:21:18;9.15;;;6.22;;
41923;SDS011;27613;48.116;11.656;2023-04-10T07:23:44;9.73;;;6.97;;
41923;SDS011;27613;48.116;11.656;2023-04-10T07:26:10;10.15;;;8.52;;
41923;SDS011;27613;48.116;11.656;2023-04-10T07:28:35;8.52;;;7.10;;
41923;SDS011;27613;48.116;11.656;2023-04-10T07:31:02;7.25;;;6.25;;
41923;SDS011;27613;48.116;11.656;2023-04-10T07:33:27;7.13;;;5.65;;
41923;SDS011;27613;48.116;11.656;2023-04-10T07:35:53;6.78;;;5.82;;
41923;SDS011;27613;48.116;11.656;2023-04-10T07:38:18;9.95;;;5.88;;
41923;SDS011;27613;48.116;11.656;2023-04-10T07:40:45;7.90;;;5.60;;
41923;SDS011;27613;48.116;11.656;2023-04-10T07:43:10;6.50;;;5.55;;
41923;SDS011;27613;48.116;11.656;2023-04-10T07:45:36;8.13;;;6.35;;
41923;SDS011;27613;48.116;11.656;2023-04-10T07:48:01;7.50;;;5.88;;
41923;SDS011;27613;48.116;11.656;2023-04-10T07:50:27;7.72;;;5.80;;
41923;SDS011;27613;48.116;11.656;2023-04-10T07:52:54;8.02;;;5.88;;
41923;SDS011;27613;48.116;11.656;2023-04-10T07:55:20;7.35;;;5.57;;
41923;SDS011;27613;48.116;11.656;2023-04-10T07:57:46;6.78;;;5.50;;
41923;SDS011;27613;48.116;11.656;2023-04-10T08:00:11;7.22;;;5.20;;
41923;SDS011;27613;48.116;11.656;2023-04-10T08:02:37;7.10;;;5.25;;
41923;SDS011;27613;48.116;11.656;2023-04-10T08:05:04;5.97;;;5.20;;
41923;SDS011;27613;48.116;11.656;2023-04-10T08:07:30;6.20;;;5.25;;
41923;SDS011;27613;48.116;11.656;2023-04-10T08:09:56;9.13;;;5.43;;
41923;SDS011;27613;48.116;11.656;2023-04-10T08:12:21;6.40;;;5.00;;
41923;SDS011;27613;48.116;11.656;2023-04-10T08:14:47;6.22;;;5.10;;
41923;SDS011;27613;48.116;11.656;2023-04-10T08:17:15;6.40;;;5.10;;
41923;SDS011;27613;48.116;11.656;2023-04-10T08:19:41;7.10;;;5.63;;
41923;SDS011;27613;48.116;11.656;2023-04-10T08:22:07;6.28;;;5.35;;
41923;SDS011;27613;48.116;11.656;2023-04-10T08:24:32;6.45;;;5.10;;
41923;SDS011;27613;48.116;11.656;2023-04-10T08:26:58;5.72;;;4.80;;
41923;SDS011;27613;48.116;11.656;2023-04-10T08:29:24;5.57;;;4.80;;
41923;SDS011;27613;48.116;11.656;2023-04-10T08:31:50;6.07;;;5.07;;
41923;SDS011;27613;48.116;11.656;2023-04-10T08:34:15;5.45;;;4.70;;
41923;SDS011;27613;48.116;11.656;2023-04-10T08:36:41;6.47;;;5.07;;
41923;SDS011;27613;48.116;11.656;2023-04-10T08:39:06;5.82;;;4.60;;
41923;SDS011;27613;48.116;11.656;2023-04-10T08:41:32;5.70;;;4.20;;
41923;SDS011;27613;48.116;11.656;2023-04-10T08:43:57;6.25;;;4.57;;
41923;SDS011;27613;48.116;11.656;2023-04-10T08:46:23;8.45;;;5.10;;
41923;SDS011;27613;48.116;11.656;2023-04-10T08:51:19;5.93;;;5.15;;
41923;SDS011;27613;48.116;11.656;2023-04-10T08:53:47;4.90;;;4.10;;
41923;SDS011;27613;48.116;11.656;2023-04-10T08:56:15;5.53;;;4.53;;
41923;SDS011;27613;48.116;11.656;2023-04-10T08:58:42;5.53;;;4.70;;
41923;SDS011;27613;48.116;11.656;2023-04-10T09:01:09;4.97;;;4.00;;
41923;SDS011;27613;48.116;11.656;2023-04-10T09:03:37;4.68;;;4.00;;
41923;SDS011;27613;48.116;11.656;2023-04-10T09:06:03;4.60;;;3.97;;
41923;SDS011;27613;48.116;11.656;2023-04-10T09:08:29;5.05;;;4.28;;
41923;SDS011;27613;48.116;11.656;2023-04-10T09:10:56;4.32;;;3.72;;
41923;SDS011;27613;48.116;11.656;2023-04-10T09:13:35;6.43;;;4.18;;
41923;SDS011;27613;48.116;11.656;2023-04-10T09:16:04;5.82;;;3.92;;
41923;SDS011;27613;48.116;11.656;2023-04-10T09:18:40;4.68;;;3.83;;
41923;SDS011;27613;48.116;11.656;2023-04-10T09:21:08;4.95;;;3.70;;
41923;SDS011;27613;48.116;11.656;2023-04-10T09:23:35;3.88;;;3.33;;
41923;SDS011;27613;48.116;11.656;2023-04-10T09:26:23;4.28;;;3.28;;
41923;SDS011;27613;48.116;11.656;2023-04-10T09:28:56;5.05;;;3.78;;
41923;SDS011;27613;48.116;11.656;2023-04-10T09:31:29;4.20;;;3.33;;
41923;SDS011;27613;48.116;11.656;2023-04-10T09:34:18;4.18;;;3.70;;
41923;SDS011;27613;48.116;11.656;2023-04-10T09:36:55;3.55;;;2.78;;
41923;SDS011;27613;48.116;11.656;2023-04-10T09:39:31;4.10;;;3.53;;
41923;SDS011;27613;48.116;11.656;2023-04-10T09:41:59;3.95;;;3.35;;
41923;SDS011;27613;48.116;11.656;2023-04-10T09:46:55;3.97;;;3.28;;
41923;SDS011;27613;48.116;11.656;2023-04-10T09:49:21;3.83;;;3.00;;
41923;SDS011;27613;48.116;11.656;2023-04-10T09:51:46;3.40;;;2.80;;
41923;SDS011;27613;48.116;11.656;2023-04-10T09:54:13;3.67;;;2.78;;
41923;SDS011;27613;48.116;11.656;2023-04-10T09:56:39;3.30;;;2.90;;
41923;SDS011;27613;48.116;11.656;2023-04-10T09:59:06;3.85;;;3.38;;
41923;SDS011;27613;48.116;11.656;2023-04-10T10:01:32;6.07;;;3.20;;
41923;SDS011;27613;48.116;11.656;2023-04-10T10:04:01;3.17;;;2.83;;
41923;SDS011;27613;48.116;11.656;2023-04-10T10:06:29;7.90;;;2.80;;
41923;SDS011;27613;48.116;11.656;2023-04-10T10:08:56;4.55;;;3.35;;
41923;SDS011;27613;48.116;11.656;2023-04-10T10:11:33;3.55;;;2.92;;
41923;SDS011;27613;48.116;11.656;2023-04-10T10:14:01;5.85;;;3.92;;
41923;SDS011;27613;48.116;11.656;2023-04-10T10:16:45;4.25;;;3.22;;
41923;SDS011;27613;48.116;11.656;2023-04-10T10:21:48;3.33;;;2.63;;
41923;SDS011;27613;48.116;11.656;2023-04-10T10:24:15;3.72;;;2.90;;
41923;SDS011;27613;48.116;11.656;2023-04-10T10:26:43;3.97;;;3.10;;
41923;SDS011;27613;48.116;11.656;2023-04-10T10:29:11;4.03;;;2.83;;
41923;SDS011;27613;48.116;11.656;2023-04-10T10:31:41;3.95;;;3.00;;
41923;SDS011;27613;48.116;11.656;2023-04-10T10:34:07;3.10;;;2.70;;
41923;SDS011;27613;48.116;11.656;2023-04-10T10:36:34;3.40;;;2.90;;
41923;SDS011;27613;48.116;11.656;2023-04-10T10:41:59;4.73;;;2.93;;
41923;SDS011;27613;48.116;11.656;2023-04-10T10:44:35;3.80;;;3.15;;
41923;SDS011;27613;48.116;11.656;2023-04-10T10:47:19;4.85;;;3.17;;
41923;SDS011;27613;48.116;11.656;2023-04-10T10:49:51;3.47;;;2.90;;
41923;SDS011;27613;48.116;11.656;2023-04-10T10:52:41;4.65;;;2.90;;
41923;SDS011;27613;48.116;11.656;2023-04-10T10:58:02;6.55;;;3.40;;
41923;SDS011;27613;48.116;11.656;2023-04-10T11:05:54;4.35;;;3.33;;
41923;SDS011;27613;48.116;11.656;2023-04-10T11:14:20;3.67;;;2.75;;
41923;SDS011;27613;48.116;11.656;2023-04-10T11:16:42;3.20;;;2.88;;
41923;SDS011;27613;48.116;11.656;2023-04-10T11:19:10;3.53;;;2.65;;
41923;SDS011;27613;48.116;11.656;2023-04-10T11:21:58;3.65;;;2.75;;
41923;SDS011;27613;48.116;11.656;2023-04-10T11:24:26;3.10;;;2.58;;
41923;SDS011;27613;48.116;11.656;2023-04-10T11:26:52;3.50;;;2.88;;
41923;SDS011;27613;48.116;11.656;2023-04-10T11:34:22;3.30;;;2.45;;
41923;SDS011;27613;48.116;11.656;2023-04-10T11:36:48;3.13;;;2.30;;
41923;SDS011;27613;48.116;11.656;2023-04-10T11:39:15;3.15;;;2.20;;
41923;SDS011;27613;48.116;11.656;2023-04-10T11:41:45;3.25;;;2.60;;
41923;SDS011;27613;48.116;11.656;2023-04-10T11:44:16;3.38;;;2.17;;
41923;SDS011;27613;48.116;11.656;2023-04-10T11:46:45;2.67;;;2.22;;
41923;SDS011;27613;48.116;11.656;2023-04-10T11:49:11;3.55;;;2.88;;
41923;SDS011;27613;48.116;11.656;2023-04-10T11:51:43;2.85;;;2.20;;
41923;SDS011;27613;48.116;11.656;2023-04-10T11:54:11;3.58;;;2.33;;
41923;SDS011;27613;48.116;11.656;2023-04-10T11:56:39;3.35;;;2.58;;
41923;SDS011;27613;48.116;11.656;2023-04-10T11:59:06;2.60;;;2.20;;
41923;SDS011;27613;48.116;11.656;2023-04-10T12:01:35;2.78;;;2.38;;
41923;SDS011;27613;48.116;11.656;2023-04-10T12:04:01;2.75;;;2.30;;
41923;SDS011;27613;48.116;11.656;2023-04-10T12:06:26;2.35;;;1.90;;
41923;SDS011;27613;48.116;11.656;2023-04-10T12:08:52;2.75;;;2.15;;
41923;SDS011;27613;48.116;11.656;2023-04-10T12:11:22;2.88;;;2.35;;
41923;SDS011;27613;48.116;11.656;2023-04-10T12:13:52;2.67;;;1.92;;
41923;SDS011;27613;48.116;11.656;2023-04-10T12:16:19;2.75;;;2.10;;
41923;SDS011;27613;48.116;11.656;2023-04-10T12:18:45;2.83;;;2.17;;
41923;SDS011;27613;48.116;11.656;2023-04-10T12:21:11;2.95;;;2.28;;
41923;SDS011;27613;48.116;11.656;2023-04-10T12:23:37;2.92;;;2.15;;
41923;SDS011;27613;48.116;11.656;2023-04-10T12:26:24;3.55;;;2.50;;
41923;SDS011;27613;48.116;11.656;2023-04-10T12:28:50;3.45;;;2.45;;
41923;SDS011;27613;48.116;11.656;2023-04-10T12:31:31;4.35;;;2.33;;
41923;SDS011;27613;48.116;11.656;2023-04-10T12:34:01;2.83;;;2.40;;
41923;SDS011;27613;48.116;11.656;2023-04-10T12:36:29;2.38;;;1.92;;
41923;SDS011;27613;48.116;11.656;2023-04-10T12:38:58;3.10;;;2.05;;
41923;SDS011;27613;48.116;11.656;2023-04-10T12:41:26;2.67;;;2.10;;
41923;SDS011;27613;48.116;11.656;2023-04-10T12:44:05;2.83;;;1.90;;
41923;SDS011;27613;48.116;11.656;2023-04-10T12:46:31;2.53;;;1.98;;
41923;SDS011;27613;48.116;11.656;2023-04-10T12:49:07;2.47;;;2.03;;
41923;SDS011;27613;48.116;11.656;2023-04-10T12:54:30;3.13;;;2.20;;
41923;SDS011;27613;48.116;11.656;2023-04-10T12:56:57;2.72;;;1.90;;
41923;SDS011;27613;48.116;11.656;2023-04-10T12:59:24;2.80;;;2.20;;
41923;SDS011;27613;48.116;11.656;2023-04-10T13:01:50;2.90;;;2.40;;
41923;SDS011;27613;48.116;11.656;2023-04-10T13:04:16;2.90;;;2.30;;
41923;SDS011;27613;48.116;11.656;2023-04-10T13:06:45;2.58;;;2.00;;
41923;SDS011;27613;48.116;11.656;2023-04-10T13:09:12;2.58;;;2.10;;
41923;SDS011;27613;48.116;11.656;2023-04-10T13:11:38;2.22;;;1.83;;
41923;SDS011;27613;48.116;11.656;2023-04-10T13:14:04;2.95;;;2.30;;
41923;SDS011;27613;48.116;11.656;2023-04-10T13:16:30;3.65;;;1.83;;
41923;SDS011;27613;48.116;11.656;2023-04-10T13:18:55;2.33;;;1.80;;
41923;SDS011;27613;48.116;11.656;2023-04-10T13:21:21;3.10;;;2.50;;
41923;SDS011;27613;48.116;11.656;2023-04-10T13:23:50;4.85;;;2.30;;
41923;SDS011;27613;48.116;11.656;2023-04-10T13:26:16;2.33;;;1.85;;
41923;SDS011;27613;48.116;11.656;2023-04-10T13:28:41;2.35;;;1.90;;
41923;SDS011;27613;48.116;11.656;2023-04-10T13:31:07;2.83;;;2.10;;
41923;SDS011;27613;48.116;11.656;2023-04-10T13:33:32;2.70;;;2.15;;
41923;SDS011;27613;48.116;11.656;2023-04-10T13:35:58;2.55;;;1.88;;
41923;SDS011;27613;48.116;11.656;2023-04-10T13:38:24;2.53;;;2.05;;
41923;SDS011;27613;48.116;11.656;2023-04-10T13:40:49;3.28;;;2.22;;
41923;SDS011;27613;48.116;11.656;2023-04-10T13:43:16;3.50;;;2.13;;
41923;SDS011;27613;48.116;11.656;2023-04-10T13:45:41;2.90;;;2.00;;
41923;SDS011;27613;48.116;11.656;2023-04-10T13:48:07;2.47;;;2.15;;
41923;SDS011;27613;48.116;11.656;2023-04-10T13:50:33;7.75;;;2.10;;
41923;SDS011;27613;48.116;11.656;2023-04-10T13:52:58;2.85;;;1.90;;
41923;SDS011;27613;48.116;11.656;2023-04-10T13:55:24;2.53;;;2.10;;
41923;SDS011;27613;48.116;11.656;2023-04-10T13:57:49;2.75;;;2.08;;
41923;SDS011;27613;48.116;11.656;2023-04-10T14:00:15;2.72;;;1.92;;
41923;SDS011;27613;48.116;11.656;2023-04-10T14:02:41;5.28;;;2.17;;
41923;SDS011;27613;48.116;11.656;2023-04-10T14:05:07;3.72;;;2.08;;
41923;SDS011;27613;48.116;11.656;2023-04-10T14:07:33;2.67;;;1.90;;
41923;SDS011;27613;48.116;11.656;2023-04-10T14:09:59;3.00;;;2.40;;
41923;SDS011;27613;48.116;11.656;2023-04-10T14:12:25;9.20;;;7.65;;
41923;SDS011;27613;48.116;11.656;2023-04-10T14:14:51;3.53;;;2.53;;
41923;SDS011;27613;48.116;11.656;2023-04-10T14:17:16;3.10;;;2.30;;
41923;SDS011;27613;48.116;11.656;2023-04-10T14:19:42;3.13;;;2.45;;
41923;SDS011;27613;48.116;11.656;2023-04-10T14:22:10;2.55;;;2.08;;
41923;SDS011;27613;48.116;11.656;2023-04-10T14:24:36;4.65;;;1.90;;
41923;SDS011;27613;48.116;11.656;2023-04-10T14:27:01;3.00;;;2.53;;
41923;SDS011;27613;48.116;11.656;2023-04-10T14:29:27;6.55;;;5.68;;
41923;SDS011;27613;48.116;11.656;2023-04-10T14:31:53;2.47;;;2.00;;
41923;SDS011;27613;48.116;11.656;2023-04-10T14:34:19;3.47;;;2.90;;
41923;SDS011;27613;48.116;11.656;2023-04-10T14:36:44;2.50;;;2.00;;
41923;SDS011;27613;48.116;11.656;2023-04-10T14:39:10;2.45;;;1.83;;
41923;SDS011;27613;48.116;11.656;2023-04-10T14:41:35;2.30;;;1.80;;
41923;SDS011;27613;48.116;11.656;2023-04-10T14:44:01;3.70;;;2.00;;
41923;SDS011;27613;48.116;11.656;2023-04-10T14:46:27;2.40;;;1.90;;
41923;SDS011;27613;48.116;11.656;2023-04-10T14:48:53;5.82;;;3.50;;
41923;SDS011;27613;48.116;11.656;2023-04-10T14:51:18;1.90;;;1.70;;
41923;SDS011;27613;48.116;11.656;2023-04-10T14:53:44;2.53;;;1.92;;
41923;SDS011;27613;48.116;11.656;2023-04-10T14:56:10;2.00;;;1.70;;
41923;SDS011;27613;48.116;11.656;2023-04-10T14:58:36;2.60;;;1.95;;
41923;SDS011;27613;48.116;11.656;2023-04-10T15:01:02;2.22;;;1.80;;
41923;SDS011;27613;48.116;11.656;2023-04-10T15:03:31;2.15;;;1.80;;
41923;SDS011;27613;48.116;11.656;2023-04-10T15:05:57;2.28;;;1.80;;
41923;SDS011;27613;48.116;11.656;2023-04-10T15:08:23;3.08;;;2.30;;
41923;SDS011;27613;48.116;11.656;2023-04-10T15:10:49;3.92;;;3.30;;
41923;SDS011;27613;48.116;11.656;2023-04-10T15:13:16;2.03;;;1.77;;
41923;SDS011;27613;48.116;11.656;2023-04-10T15:15:45;2.38;;;1.80;;